Time;durP1;ratioP1;P1;durP2;ratioP2;P2;SDS_P1;SDS_P2;PMS_P1;PMS_P2;Temp;Humidity;BMP_temperature;BMP_pressure;BME280_temperature;BME280_humidity;BME280_pressure;Samples;Min_cycle;Max_cycle;Signal;HPM_P1;HPM_P2
2022/12/08 00:01:12;;;;;;;23.48;13.18;;;;;;;2.29;79.64;94594.97;5030905;28;20029;-71
2022/12/08 00:03:38;;;;;;;24.55;12.88;;;;;;;2.32;80.21;94602.47;5014753;28;20515;-71
2022/12/08 00:11:33;;;;;;;21.67;12.15;;;;;;;2.71;79.62;94621.75;5030902;28;20036;-70
2022/12/08 00:13:58;;;;;;;22.33;11.88;;;;;;;2.72;78.46;94629.34;5030060;28;20113;-70
2022/12/08 00:16:24;;;;;;;29.88;18.52;;;;;;;2.67;78.41;94654.41;5029460;28;20036;-70
2022/12/08 00:18:49;;;;;;;32.10;20.02;;;;;;;2.64;78.19;94655.41;5029595;28;20503;-70
2022/12/08 00:21:15;;;;;;;31.08;17.30;;;;;;;2.58;77.85;94652.34;5030604;28;20041;-70
2022/12/08 00:23:40;;;;;;;34.15;17.92;;;;;;;2.33;77.89;94663.09;5013494;28;20022;-70
2022/12/08 00:26:06;;;;;;;32.97;17.65;;;;;;;2.41;77.91;94656.66;5030416;28;20029;-71
2022/12/08 00:28:32;;;;;;;28.95;16.60;;;;;;;2.50;78.04;94665.56;5030395;28;20033;-70
2022/12/08 00:30:57;;;;;;;25.30;15.32;;;;;;;2.52;77.79;94668.91;5030337;28;20108;-70
2022/12/08 00:33:22;;;;;;;25.02;13.13;;;;;;;2.51;77.47;94671.53;5014271;28;20040;-70
2022/12/08 00:35:48;;;;;;;21.58;12.02;;;;;;;2.49;77.18;94673.38;5031473;28;20495;-70
2022/12/08 00:38:13;;;;;;;27.42;14.65;;;;;;;2.51;78.62;94662.13;5031856;28;20045;-71
2022/12/08 00:40:44;;;;;;;24.13;14.45;;;;;;;2.53;78.60;94637.19;5030340;28;20033;-70
2022/12/08 00:43:09;;;;;;;22.23;14.38;;;;;;;2.60;78.45;94661.63;5044981;28;20033;-70
2022/12/08 00:45:34;;;;;;;26.95;15.90;;;;;;;2.66;78.55;94671.53;5051053;28;20029;-70
2022/12/08 00:48:00;;;;;;;26.92;15.70;;;;;;;2.43;78.65;94634.31;5049914;28;20094;-71
2022/12/08 00:50:25;;;;;;;27.90;15.23;;;;;;;2.49;78.31;94645.16;5050349;28;20029;-71
2022/12/08 00:52:51;;;;;;;23.63;14.38;;;;;;;2.71;78.07;94678.19;5051379;28;20450;-71
2022/12/08 00:55:16;;;;;;;22.77;14.18;;;;;;;2.60;78.52;94661.63;5034666;28;20102;-70
2022/12/08 00:57:42;;;;;;;20.40;13.15;;;;;;;2.74;78.90;94688.28;5016576;28;20052;-71
2022/12/08 01:00:08;;;;;;;25.88;13.30;;;;;;;2.75;77.86;94682.22;5049919;28;20431;-70
2022/12/08 01:02:33;;;;;;;20.00;12.05;;;;;;;2.83;76.72;94682.63;5032634;28;20017;-70
2022/12/08 01:04:58;;;;;;;19.90;11.85;;;;;;;2.62;76.75;94659.81;5049707;28;20101;-71
2022/12/08 01:07:24;;;;;;;25.70;13.20;;;;;;;2.63;76.99;94670.88;5051068;28;20467;-71
2022/12/08 01:09:49;;;;;;;26.20;14.52;;;;;;;2.66;77.26;94674.09;5050805;28;20423;-71
2022/12/08 01:12:15;;;;;;;24.98;13.77;;;;;;;2.73;77.20;94666.94;5050604;28;20028;-70
2022/12/08 01:14:40;;;;;;;24.75;13.30;;;;;;;2.78;77.10;94658.97;5050605;28;20099;-71
2022/12/08 01:17:06;;;;;;;22.75;13.98;;;;;;;2.73;77.17;94655.81;5049559;28;20059;-71
2022/12/08 01:19:31;;;;;;;20.23;12.48;;;;;;;2.69;78.19;94661.09;5050943;28;20423;-70
2022/12/08 01:21:57;;;;;;;25.48;13.77;;;;;;;2.57;79.98;94660.97;5049206;28;20048;-70
2022/12/08 01:24:22;;;;;;;22.83;12.60;;;;;;;2.65;80.39;94669.91;5050802;28;20526;-71
2022/12/08 01:26:48;;;;;;;26.88;14.23;;;;;;;2.74;80.46;94660.88;5049512;28;20392;-71
2022/12/08 01:29:14;;;;;;;25.30;13.20;;;;;;;2.78;80.46;94658.97;5049460;28;20048;-70
2022/12/08 01:31:39;;;;;;;19.63;12.20;;;;;;;2.71;81.11;94640.53;5049330;28;20025;-71
2022/12/08 01:34:05;;;;;;;19.08;12.57;;;;;;;2.81;81.30;94663.91;5049389;28;20036;-71
2022/12/08 01:36:31;;;;;;;21.52;12.55;;;;;;;2.74;81.61;94666.00;5050526;28;20535;-71
2022/12/08 01:38:58;;;;;;;21.58;12.40;;;;;;;2.85;81.50;94650.84;5049342;28;20052;-71
2022/12/08 01:41:25;;;;;;;22.80;12.48;;;;;;;2.86;81.07;94631.13;5032224;28;20033;-71
2022/12/08 01:43:55;;;;;;;21.10;11.52;;;;;;;2.99;80.94;94649.25;5029313;28;20044;-71
2022/12/08 01:46:20;;;;;;;24.05;12.23;;;;;;;2.97;80.81;94639.06;5030637;28;20039;-70
2022/12/08 01:48:46;;;;;;;22.00;12.65;;;;;;;3.00;80.91;94635.50;5029444;28;20116;-70
2022/12/08 01:51:11;;;;;;;19.17;12.27;;;;;;;2.87;81.04;94630.22;5012992;28;20029;-71
2022/12/08 01:53:37;;;;;;;26.05;16.02;;;;;;;2.94;80.38;94623.84;5029524;28;20036;-71
2022/12/08 01:56:05;;;;;;;26.40;16.77;;;;;;;3.06;79.97;94630.84;5029032;28;20038;-70
2022/12/08 01:58:35;;;;;;;33.10;17.65;;;;;;;3.08;78.71;94636.72;5029643;28;20046;-70
2022/12/08 02:01:00;;;;;;;27.08;17.05;;;;;;;3.08;78.81;94626.47;5029148;28;20034;-70
2022/12/08 02:03:28;;;;;;;30.67;17.60;;;;;;;3.13;78.31;94619.31;5029315;28;20036;-70
2022/12/08 02:05:54;;;;;;;29.55;17.27;;;;;;;3.18;78.10;94618.25;5029218;28;20084;-71
2022/12/08 02:08:19;;;;;;;23.80;14.13;;;;;;;3.17;77.17;94614.03;5029461;28;20032;-71
2022/12/08 02:10:45;;;;;;;17.88;11.05;;;;;;;3.06;78.11;94612.88;5029224;28;20037;-70
2022/12/08 02:13:15;;;;;;;17.48;11.00;;;;;;;3.01;78.39;94604.63;5029182;28;20520;-71
2022/12/08 02:15:40;;;;;;;19.08;11.15;;;;;;;2.75;80.22;94610.38;5016242;28;20045;-70
2022/12/08 02:18:21;;;;;;;26.23;15.48;;;;;;;2.98;79.55;94612.50;5034230;28;20361;-71
2022/12/08 02:20:52;;;;;;;28.10;17.03;;;;;;;2.85;79.26;94639.75;5033840;28;20474;-71
2022/12/08 02:23:17;;;;;;;;;;;;;;;2.42;79.26;94629.25;5034819;28;20554;-70
2022/12/08 02:25:48;;;;;;;26.65;15.65;;;;;;;2.31;80.24;94629.00;5033767;28;19928;-70
2022/12/08 02:28:29;;;;;;;25.70;16.95;;;;;;;2.62;79.41;94621.34;5034159;28;20398;-71
2022/12/08 02:31:21;;;;;;;25.75;16.08;;;;;;;2.51;79.15;94625.38;5016020;28;20034;-70
2022/12/08 02:34:17;;;;;;;24.63;14.48;;;;;;;2.57;78.65;94633.56;5018337;28;20052;-71
2022/12/08 02:36:51;;;;;;;21.55;13.38;;;;;;;2.60;78.12;94630.84;5031731;28;20048;-71
2022/12/08 02:40:06;;;;;;;24.83;13.35;;;;;;;2.55;78.09;94627.69;5033624;28;20048;-71
2022/12/08 02:43:00;;;;;;;19.23;11.85;;;;;;;2.56;77.77;94637.03;5046058;28;20029;-70
2022/12/08 02:45:44;;;;;;;19.05;10.93;;;;;;;2.52;77.50;94645.81;5033129;28;20533;-71
2022/12/08 02:48:10;;;;;;;22.92;11.77;;;;;;;2.47;77.97;94640.91;5035886;28;20104;-70
2022/12/08 02:50:35;;;;;;;19.23;12.10;;;;;;;2.38;77.34;94594.47;5052015;28;20037;-70
2022/12/08 02:53:02;;;;;;;19.90;11.20;;;;;;;2.62;76.91;94617.94;5051996;28;20036;-70
2022/12/08 02:55:56;;;;;;;19.83;10.95;;;;;;;2.53;76.81;94632.06;5035481;28;20067;-71
2022/12/08 02:58:43;;;;;;;16.58;10.52;;;;;;;2.35;77.22;94608.25;5053575;28;20059;-71
2022/12/08 03:01:40;;;;;;;18.33;10.10;;;;;;;2.38;76.61;94625.22;5020581;28;20075;-70
2022/12/08 03:04:20;;;;;;;19.52;11.90;;;;;;;2.41;76.35;94625.06;5052078;28;20102;-71
2022/12/08 03:07:04;;;;;;;14.45;9.77;;;;;;;2.36;76.33;94624.47;5035735;28;20404;-70
2022/12/08 03:09:45;;;;;;;16.73;10.75;;;;;;;2.30;77.13;94614.53;5051786;28;20095;-71
2022/12/08 03:12:24;;;;;;;19.10;10.88;;;;;;;2.23;76.82;94617.44;5053074;28;20034;-71
2022/12/08 03:14:51;;;;;;;16.80;10.13;;;;;;;2.18;76.81;94606.59;5052623;28;20057;-71
2022/12/08 03:17:17;;;;;;;19.30;11.38;;;;;;;2.08;76.39;94615.69;5018531;28;20041;-70
2022/12/08 03:19:43;;;;;;;17.38;10.25;;;;;;;2.24;75.58;94618.28;5035032;28;20029;-71
2022/12/08 03:22:08;;;;;;;18.92;11.57;;;;;;;2.22;75.88;94618.34;5034907;28;20051;-71
2022/12/08 03:24:35;;;;;;;19.58;11.48;;;;;;;1.86;76.27;94577.53;5051496;28;20090;-70
2022/12/08 03:27:03;;;;;;;22.48;15.27;;;;;;;2.02;77.58;94605.75;5034392;28;20040;-71
2022/12/08 03:29:29;;;;;;;21.90;14.32;;;;;;;1.96;78.42;94608.66;5034884;28;20033;-71
2022/12/08 03:32:01;;;;;;;20.15;12.82;;;;;;;1.99;78.78;94621.28;5034772;28;20032;-71
2022/12/08 03:34:27;;;;;;;24.27;14.00;;;;;;;1.57;78.87;94612.38;5034975;28;20079;-71
2022/12/08 03:36:53;;;;;;;25.85;14.40;;;;;;;1.85;78.18;94618.63;5034447;28;20032;-71
2022/12/08 03:39:18;;;;;;;21.02;13.52;;;;;;;1.96;78.32;94619.72;5051114;28;20079;-71
2022/12/08 03:41:44;;;;;;;19.55;10.80;;;;;;;1.88;78.55;94626.97;5049153;28;20033;-71
2022/12/08 03:44:10;;;;;;;17.85;10.45;;;;;;;2.00;77.63;94621.19;5014627;28;20029;-71
2022/12/08 03:46:35;;;;;;;15.77;9.30;;;;;;;2.08;77.22;94617.41;5030967;28;20028;-71
2022/12/08 03:49:01;;;;;;;32.72;12.32;;;;;;;1.98;77.25;94614.53;5030930;28;20030;-71
2022/12/08 03:51:26;;;;;;;22.25;10.68;;;;;;;1.92;77.61;94610.56;5030792;28;20037;-70
2022/12/08 03:53:51;;;;;;;15.27;9.82;;;;;;;2.01;77.52;94609.25;5014224;28;20042;-71
2022/12/08 03:56:23;;;;;;;14.48;8.48;;;;;;;2.09;76.88;94614.78;5030381;28;20134;-71
2022/12/08 03:58:48;;;;;;;;;;;;;;;2.01;77.04;94628.00;5032333;28;20029;-71
2022/12/08 04:01:14;;;;;;;18.27;9.90;;;;;;;1.85;78.41;94626.31;5030596;28;19913;-70
2022/12/08 04:03:39;;;;;;;22.42;11.00;;;;;;;1.71;79.92;94627.84;5030580;28;20498;-70
2022/12/08 04:06:05;;;;;;;23.13;11.75;;;;;;;1.63;79.96;94622.28;5031846;28;20023;-70
2022/12/08 04:08:30;;;;;;;25.88;13.23;;;;;;;1.79;79.65;94633.41;5030626;28;20494;-70
2022/12/08 04:10:56;;;;;;;37.95;20.88;;;;;;;1.80;79.85;94626.53;5030667;28;20032;-70
2022/12/08 04:13:21;;;;;;;38.17;20.25;;;;;;;1.89;80.18;94644.00;5031190;28;20029;-71
2022/12/08 04:15:47;;;;;;;26.83;15.82;;;;;;;1.75;80.00;94601.16;5030531;28;20091;-70
2022/12/08 04:18:13;;;;;;;28.83;14.82;;;;;;;2.01;80.42;94622.06;5029474;28;20100;-71
2022/12/08 04:20:39;;;;;;;39.33;18.33;;;;;;;2.13;80.98;94631.66;5030350;28;20099;-71
2022/12/08 04:23:05;;;;;;;32.45;16.27;;;;;;;2.19;80.76;94640.75;5030309;28;20026;-71
2022/12/08 04:25:30;;;;;;;23.42;13.65;;;;;;;1.90;81.29;94603.84;5031483;28;20049;-70
2022/12/08 04:27:56;;;;;;;24.60;13.32;;;;;;;2.27;80.69;94632.66;5030271;28;20021;-70
2022/12/08 04:30:21;;;;;;;36.30;16.55;;;;;;;2.19;80.79;94633.06;5031315;28;20491;-71
2022/12/08 04:32:47;;;;;;;27.80;14.98;;;;;;;2.31;81.03;94637.53;5013658;28;20118;-71
2022/12/08 04:35:12;;;;;;;29.85;16.58;;;;;;;2.34;80.67;94641.66;5030067;28;20037;-70
2022/12/08 04:37:38;;;;;;;30.80;18.42;;;;;;;2.38;80.85;94635.47;5030591;28;20029;-71
2022/12/08 04:40:03;;;;;;;37.83;20.60;;;;;;;2.22;81.11;94635.47;5013508;28;20041;-70
2022/12/08 04:42:29;;;;;;;34.35;16.77;;;;;;;2.44;81.13;94645.41;5022830;28;20024;-70
2022/12/08 04:44:54;;;;;;;29.73;15.68;;;;;;;2.52;80.74;94642.44;5051044;28;20041;-70
2022/12/08 04:47:21;;;;;;;49.80;23.05;;;;;;;2.37;81.83;94636.41;5050988;28;20387;-70
2022/12/08 04:49:46;;;;;;;30.95;16.75;;;;;;;2.42;81.97;94642.09;5033314;28;20120;-71
2022/12/08 04:52:12;;;;;;;40.55;21.40;;;;;;;2.59;82.00;94643.72;5033028;28;20078;-71
2022/12/08 04:54:37;;;;;;;49.90;24.00;;;;;;;2.37;82.50;94638.97;5016616;28;20037;-71
2022/12/08 04:57:03;;;;;;;31.40;15.18;;;;;;;2.59;82.99;94646.28;5049453;28;20045;-70
2022/12/08 04:59:28;;;;;;;28.95;15.30;;;;;;;2.63;82.67;94634.97;5049791;28;20071;-71
2022/12/08 05:01:54;;;;;;;30.60;14.90;;;;;;;2.85;82.29;94640.59;5049496;28;20029;-70
2022/12/08 05:04:19;;;;;;;20.42;12.00;;;;;;;2.93;81.79;94647.03;5049670;28;20029;-70
2022/12/08 05:06:44;;;;;;;16.17;10.10;;;;;;;2.77;82.75;94637.59;5050583;28;20045;-71
2022/12/08 05:09:10;;;;;;;15.23;9.68;;;;;;;2.93;82.50;94658.13;5050740;28;20036;-71
2022/12/08 05:11:40;;;;;;;15.07;8.93;;;;;;;3.09;81.68;94648.66;5049389;28;20036;-71
2022/12/08 05:14:09;;;;;;;17.05;10.07;;;;;;;3.12;81.39;94648.50;5050649;28;20072;-71
2022/12/08 05:16:35;;;;;;;16.00;9.20;;;;;;;3.11;81.33;94651.13;5032924;28;20098;-70
2022/12/08 05:19:01;;;;;;;41.05;16.98;;;;;;;3.14;81.12;94646.63;5018346;28;20030;-71
2022/12/08 05:21:26;;;;;;;20.58;9.27;;;;;;;3.35;80.68;94661.75;5044509;28;20068;-71
2022/12/08 05:23:52;;;;;;;19.80;11.35;;;;;;;3.30;80.51;94662.00;5046946;28;20033;-71
2022/12/08 05:26:17;;;;;;;30.10;14.20;;;;;;;3.36;80.30;94642.88;5046552;28;20025;-71
2022/12/08 05:28:43;;;;;;;13.23;8.13;;;;;;;3.17;80.72;94650.78;5028606;28;20041;-71
2022/12/08 05:31:09;;;;;;;51.95;24.08;;;;;;;3.30;80.66;94656.88;5041545;28;20032;-71
2022/12/08 05:33:34;;;;;;;19.55;11.13;;;;;;;3.42;80.12;94657.91;5029089;28;20468;-71
2022/12/08 05:36:00;;;;;;;17.20;10.70;;;;;;;3.47;80.04;94657.66;5045475;28;20048;-71
2022/12/08 05:38:25;;;;;;;15.40;8.80;;;;;;;3.39;80.48;94668.38;5041204;28;20589;-70
2022/12/08 05:40:51;;;;;;;28.45;16.77;;;;;;;3.40;79.95;94667.47;5037754;28;20470;-71
2022/12/08 05:43:16;;;;;;;59.00;35.05;;;;;;;3.19;79.97;94663.53;5039000;28;20641;-71
2022/12/08 05:45:42;;;;;;;51.17;29.73;;;;;;;2.96;80.53;94655.38;5041381;28;20048;-71
2022/12/08 05:48:07;;;;;;;43.53;22.80;;;;;;;3.11;80.85;94682.75;5043726;28;20100;-71
2022/12/08 05:50:33;;;;;;;48.28;29.90;;;;;;;3.18;80.14;94667.03;5045127;28;20049;-70
2022/12/08 05:52:58;;;;;;;75.10;38.55;;;;;;;3.27;79.85;94687.03;5027227;28;20036;-71
2022/12/08 05:55:24;;;;;;;67.00;38.90;;;;;;;3.23;79.54;94688.13;5027971;28;20095;-70
2022/12/08 05:57:49;;;;;;;63.47;34.67;;;;;;;3.02;79.46;94696.09;5035780;28;20407;-71
2022/12/08 06:00:15;;;;;;;45.33;28.13;;;;;;;2.85;79.72;94689.34;5038801;28;20036;-71
2022/12/08 06:02:41;;;;;;;52.00;27.02;;;;;;;2.98;79.36;94684.38;5033007;28;20509;-71
2022/12/08 06:05:07;;;;;;;42.60;23.42;;;;;;;2.94;79.64;94680.31;5043118;28;20026;-71
2022/12/08 06:07:32;;;;;;;38.40;22.63;;;;;;;3.04;79.67;94683.19;5031655;28;20034;-71
2022/12/08 06:09:58;;;;;;;43.90;25.45;;;;;;;2.84;79.96;94663.75;5047276;28;20037;-71
2022/12/08 06:12:23;;;;;;;36.40;23.27;;;;;;;3.05;79.59;94677.97;5049956;28;20533;-71
2022/12/08 06:14:48;;;;;;;37.05;22.90;;;;;;;3.10;79.37;94673.41;5048516;28;20481;-71
2022/12/08 06:17:14;;;;;;;43.70;24.52;;;;;;;3.22;79.41;94668.50;5045973;28;20419;-71
2022/12/08 06:19:39;;;;;;;44.70;27.83;;;;;;;3.18;79.18;94682.44;5047283;28;20029;-71
2022/12/08 06:22:05;;;;;;;43.08;27.35;;;;;;;3.21;79.15;94687.41;5046764;28;20418;-71
2022/12/08 06:24:30;;;;;;;44.78;29.63;;;;;;;3.26;78.93;94696.50;5046624;28;20056;-71
2022/12/08 06:26:56;;;;;;;57.25;32.28;;;;;;;3.25;78.34;94694.81;5043837;28;20036;-71
2022/12/08 06:29:21;;;;;;;53.92;30.25;;;;;;;3.11;78.86;94703.28;5029809;28;20029;-71
2022/12/08 06:31:46;;;;;;;49.03;27.95;;;;;;;3.04;78.71;94707.13;5045068;28;20029;-71
2022/12/08 06:34:12;;;;;;;45.33;25.35;;;;;;;3.01;78.46;94709.00;5043169;28;20514;-71
2022/12/08 06:36:37;;;;;;;46.92;25.75;;;;;;;3.20;77.62;94719.09;5043057;28;20032;-71
2022/12/08 06:39:03;;;;;;;51.30;30.70;;;;;;;3.18;77.30;94697.84;5041650;28;20457;-71
2022/12/08 06:41:28;;;;;;;64.35;35.50;;;;;;;3.13;77.59;94728.88;5029014;28;20028;-71
2022/12/08 06:43:57;;;;;;;50.28;28.45;;;;;;;3.00;78.02;94721.03;5048952;28;20044;-71
2022/12/08 06:46:22;;;;;;;50.88;29.92;;;;;;;3.08;78.06;94708.59;5045640;28;20110;-71
2022/12/08 06:48:49;;;;;;;48.95;29.38;;;;;;;3.21;77.73;94703.63;5046496;28;20484;-71
2022/12/08 06:51:16;;;;;;;61.65;33.15;;;;;;;3.18;78.08;94711.50;5031413;28;20025;-71
2022/12/08 06:53:42;;;;;;;52.88;31.63;;;;;;;3.29;78.04;94703.19;5045728;28;20033;-71
2022/12/08 06:56:08;;;;;;;55.30;30.42;;;;;;;3.18;78.23;94692.72;5044479;28;20094;-71
2022/12/08 06:58:33;;;;;;;176.48;58.40;;;;;;;3.18;78.33;94687.56;5044856;28;20558;-71
2022/12/08 07:01:09;;;;;;;136.63;51.75;;;;;;;3.22;78.46;94676.19;5046533;28;20041;-71
2022/12/08 07:03:35;;;;;;;75.60;37.45;;;;;;;3.24;78.15;94684.66;5045021;28;20032;-71
2022/12/08 07:06:00;;;;;;;73.72;35.05;;;;;;;3.28;77.99;94678.41;5025073;28;20510;-71
2022/12/08 07:08:26;;;;;;;79.40;36.05;;;;;;;3.41;77.79;94696.53;5049225;28;20017;-71
2022/12/08 07:10:51;;;;;;;69.65;35.47;;;;;;;3.42;78.14;94696.44;5048280;28;20409;-71
2022/12/08 07:13:17;;;;;;;98.55;43.75;;;;;;;3.32;77.93;94695.31;5047689;28;20021;-71
2022/12/08 07:15:42;;;;;;;102.45;42.33;;;;;;;3.32;77.90;94696.16;5047247;28;20040;-71
2022/12/08 07:18:07;;;;;;;81.97;37.88;;;;;;;3.30;78.26;94697.97;5048208;28;20036;-71
2022/12/08 07:20:33;;;;;;;94.95;42.22;;;;;;;2.98;79.06;94688.66;5048218;28;20418;-71
2022/12/08 07:22:58;;;;;;;83.72;38.72;;;;;;;3.23;78.41;94721.50;5046313;28;20056;-70
2022/12/08 07:25:24;;;;;;;68.88;35.90;;;;;;;3.28;78.29;94709.22;5043930;28;20103;-70
2022/12/08 07:27:50;;;;;;;75.15;36.88;;;;;;;3.34;78.56;94720.00;5047922;28;20025;-70
2022/12/08 07:30:16;;;;;;;62.97;31.30;;;;;;;3.23;78.79;94714.63;5049207;28;20515;-70
2022/12/08 07:32:41;;;;;;;55.55;31.95;;;;;;;3.42;78.34;94731.56;5030492;28;20029;-70
2022/12/08 07:35:07;;;;;;;58.55;33.80;;;;;;;3.30;78.91;94738.22;5046228;28;20040;-70
2022/12/08 07:37:33;;;;;;;56.40;30.50;;;;;;;3.01;79.47;94711.56;5045806;28;20124;-70
2022/12/08 07:39:58;;;;;;;62.55;32.90;;;;;;;3.14;79.52;94759.59;5011149;28;20087;-70
2022/12/08 07:42:23;;;;;;;71.97;35.25;;;;;;;3.13;79.94;94760.50;5035885;28;20026;-70
2022/12/08 07:44:49;;;;;;;57.63;32.60;;;;;;;3.15;79.59;94742.47;5050184;28;20043;-70
2022/12/08 07:47:14;;;;;;;68.53;36.35;;;;;;;3.33;79.31;94750.88;5042923;28;20221;-71
2022/12/08 07:49:40;;;;;;;60.00;34.90;;;;;;;3.18;79.39;94739.75;5030140;28;20029;-70
2022/12/08 07:52:05;;;;;;;68.30;35.38;;;;;;;3.25;79.38;94756.44;5030433;28;20034;-70
2022/12/08 07:54:31;;;;;;;69.00;37.35;;;;;;;3.22;79.39;94730.13;5030750;28;20511;-70
2022/12/08 07:56:56;;;;;;;72.18;37.55;;;;;;;3.18;79.71;94739.75;5016555;28;20041;-69
2022/12/08 07:59:22;;;;;;;62.72;35.05;;;;;;;3.29;79.38;94746.84;5039153;28;20492;-70
2022/12/08 08:01:47;;;;;;;63.67;33.70;;;;;;;3.40;79.12;94749.66;5038084;28;20029;-69
2022/12/08 08:04:13;;;;;;;63.78;33.47;;;;;;;3.28;79.17;94734.91;5050603;28;20021;-70
2022/12/08 08:06:38;;;;;;;60.72;33.70;;;;;;;3.43;78.97;94746.91;5050983;28;20091;-69
2022/12/08 08:09:04;;;;;;;58.33;31.25;;;;;;;3.49;78.99;94749.13;5031385;28;20504;-70
2022/12/08 08:11:29;;;;;;;52.88;30.58;;;;;;;3.58;79.00;94748.59;5032496;28;20045;-70
2022/12/08 08:13:56;;;;;;;44.75;25.65;;;;;;;3.54;79.14;94741.16;5049884;28;20033;-71
2022/12/08 08:16:21;;;;;;;39.88;22.70;;;;;;;3.68;79.03;94746.34;5033571;28;20087;-70
2022/12/08 08:18:48;;;;;;;38.80;22.42;;;;;;;3.94;79.00;94750.00;5018155;28;20041;-70
2022/12/08 08:21:13;;;;;;;38.60;22.38;;;;;;;4.01;78.87;94733.31;5031445;28;20087;-70
2022/12/08 08:23:39;;;;;;;38.05;21.90;;;;;;;4.10;78.42;94731.13;5030446;28;20034;-70
2022/12/08 08:26:04;;;;;;;37.47;21.17;;;;;;;4.16;78.49;94735.88;5031270;28;20036;-70
2022/12/08 08:28:30;;;;;;;35.78;19.65;;;;;;;4.33;77.82;94737.47;5049225;28;20037;-70
2022/12/08 08:30:55;;;;;;;31.30;18.27;;;;;;;4.52;77.48;94742.34;5050017;28;20032;-70
2022/12/08 08:33:21;;;;;;;33.53;19.20;;;;;;;4.61;77.63;94747.75;5049959;28;20121;-70
2022/12/08 08:35:46;;;;;;;27.30;17.15;;;;;;;4.62;77.88;94738.28;5049920;28;20107;-70
2022/12/08 08:38:12;;;;;;;31.45;18.55;;;;;;;4.78;77.76;94756.19;5033642;28;20036;-70
2022/12/08 08:40:37;;;;;;;30.50;18.95;;;;;;;4.84;77.74;94748.91;5049915;28;20029;-71
2022/12/08 08:43:03;;;;;;;26.45;17.00;;;;;;;4.89;77.54;94734.00;5033422;28;20029;-71
2022/12/08 08:45:29;;;;;;;29.33;17.55;;;;;;;5.02;77.03;94734.09;5016833;28;20024;-70
2022/12/08 08:47:54;;;;;;;29.58;17.65;;;;;;;5.18;76.72;94735.69;5033332;28;20037;-70
2022/12/08 08:50:19;;;;;;;30.58;18.00;;;;;;;5.28;76.50;94723.91;5051081;28;20492;-70
2022/12/08 08:52:45;;;;;;;29.40;18.67;;;;;;;5.36;76.54;94722.47;5051170;28;20033;-70
2022/12/08 08:55:10;;;;;;;29.77;18.50;;;;;;;5.55;75.75;94729.06;5050864;28;20033;-70
2022/12/08 08:57:36;;;;;;;28.40;17.90;;;;;;;5.62;75.49;94711.44;5049741;28;20045;-70
2022/12/08 09:00:03;;;;;;;41.85;21.27;;;;;;;5.78;75.18;94732.72;5049712;28;20033;-70
2022/12/08 09:02:28;;;;;;;88.63;33.75;;;;;;;5.85;74.81;94730.53;5049800;28;20032;-70
2022/12/08 09:04:54;;;;;;;32.08;18.02;;;;;;;5.88;74.50;94720.03;5033006;28;20494;-70
2022/12/08 09:07:19;;;;;;;27.92;15.65;;;;;;;6.01;73.95;94723.47;5049656;28;20029;-70
2022/12/08 09:09:45;;;;;;;24.77;14.82;;;;;;;6.07;73.47;94727.41;5049567;28;20037;-70
2022/12/08 09:12:10;;;;;;;24.92;15.65;;;;;;;6.30;73.09;94718.16;5049635;28;20025;-70
2022/12/08 09:14:36;;;;;;;28.33;16.02;;;;;;;6.48;72.29;94709.16;5033225;28;20084;-70
2022/12/08 09:17:01;;;;;;;27.98;15.90;;;;;;;6.61;72.11;94691.91;5050684;28;20033;-70
2022/12/08 09:19:27;;;;;;;24.77;15.07;;;;;;;6.79;71.49;94707.03;5032932;28;20499;-72
2022/12/08 09:21:52;;;;;;;24.88;15.07;;;;;;;6.88;71.59;94690.88;5049636;28;20021;-70
2022/12/08 09:24:18;;;;;;;24.15;14.52;;;;;;;6.94;70.54;94687.91;5052523;28;20473;-70
2022/12/08 09:26:43;;;;;;;19.67;13.15;;;;;;;6.93;70.32;94681.06;5054765;28;20017;-70
2022/12/08 09:29:09;;;;;;;22.23;14.27;;;;;;;7.16;69.44;94687.22;5055084;28;20037;-71
2022/12/08 09:31:34;;;;;;;19.10;12.43;;;;;;;7.23;69.14;94677.25;5053322;28;20407;-71
2022/12/08 09:34:00;;;;;;;18.67;12.77;;;;;;;7.42;68.65;94669.81;5053381;28;20040;-70
2022/12/08 09:36:25;;;;;;;23.77;14.18;;;;;;;7.60;69.73;94671.06;5036606;28;20033;-71
2022/12/08 09:38:52;;;;;;;21.42;13.32;;;;;;;7.82;68.34;94669.47;5053356;28;20036;-71
2022/12/08 09:41:36;;;;;;;18.65;12.82;;;;;;;7.88;68.46;94679.34;5024688;28;20036;-71
2022/12/08 09:44:27;;;;;;;20.65;12.55;;;;;;;7.90;67.90;94654.19;5042825;28;20024;-71
2022/12/08 09:46:52;;;;;;;20.70;13.43;;;;;;;8.13;66.68;94664.59;5040985;28;20057;-71
2022/12/08 09:49:20;;;;;;;20.52;12.88;;;;;;;8.24;66.37;94677.53;5041029;28;20119;-71
2022/12/08 09:51:45;;;;;;;20.88;13.88;;;;;;;8.36;66.92;94674.03;5033177;28;20034;-71
2022/12/08 09:54:27;;;;;;;29.42;17.70;;;;;;;8.14;66.41;94674.00;5034782;28;20049;-72
2022/12/08 09:56:53;;;;;;;27.45;17.38;;;;;;;8.31;66.62;94678.72;5021572;28;20056;-72
2022/12/08 09:59:40;;;;;;;29.83;17.70;;;;;;;8.29;67.08;94663.31;5051857;28;20040;-71
2022/12/08 10:02:25;;;;;;;31.55;16.52;;;;;;;8.33;66.04;94629.41;5028879;28;20068;-72
2022/12/08 10:04:53;;;;;;;28.50;17.90;;;;;;;8.57;66.05;94660.41;5028000;28;20041;-71
2022/12/08 10:07:38;;;;;;;29.08;18.27;;;;;;;8.42;66.46;94655.47;5032328;28;20033;-72
2022/12/08 10:10:12;;;;;;;32.45;18.25;;;;;;;8.37;66.61;94648.97;5046871;28;20033;-72
2022/12/08 10:12:42;;;;;;;27.83;17.45;;;;;;;8.35;66.65;94636.13;5043383;28;20094;-72
2022/12/08 10:15:16;;;;;;;33.22;18.30;;;;;;;8.29;67.28;94642.59;5039557;28;20487;-71
2022/12/08 10:17:44;;;;;;;29.30;17.75;;;;;;;8.43;66.29;94627.81;5038762;28;20415;-71
2022/12/08 10:20:12;;;;;;;28.73;17.73;;;;;;;8.57;66.08;94640.50;5021387;28;20058;-71
2022/12/08 10:22:38;;;;;;;28.92;17.88;;;;;;;8.47;66.37;94634.41;5037707;28;20029;-72
2022/12/08 10:25:12;;;;;;;31.10;17.25;;;;;;;8.30;65.67;94638.25;5037157;28;20053;-72
2022/12/08 10:27:38;;;;;;;32.47;17.58;;;;;;;8.15;66.37;94629.06;5017981;28;20052;-72
2022/12/08 10:30:12;;;;;;;23.70;15.07;;;;;;;8.19;66.87;94631.31;5042813;28;20437;-72
2022/12/08 10:32:37;;;;;;;27.63;16.30;;;;;;;8.02;66.48;94630.03;5050814;28;20419;-72
2022/12/08 10:35:05;;;;;;;23.20;15.63;;;;;;;8.30;66.43;94620.13;5032697;28;20136;-72
2022/12/08 10:37:31;;;;;;;27.50;16.08;;;;;;;8.46;66.00;94623.22;5034405;28;20029;-72
2022/12/08 10:40:00;;;;;;;27.33;16.67;;;;;;;8.49;66.37;94625.56;5037500;28;20222;-73
2022/12/08 10:42:31;;;;;;;36.67;15.85;;;;;;;8.62;65.88;94615.09;5032227;28;20048;-72
2022/12/08 10:45:09;;;;;;;;;;;;;;;8.69;65.82;94610.25;5015141;28;20032;-72
2022/12/08 10:47:39;;;;;;;26.98;16.05;;;;;;;8.72;65.75;94617.78;5031533;28;20023;-72
2022/12/08 10:50:30;;;;;;;28.58;16.75;;;;;;;8.77;65.55;94610.47;4997548;28;20042;-72
2022/12/08 10:52:59;;;;;;;;;;;;;;;8.77;64.89;94600.09;5021276;28;20123;-72
2022/12/08 10:55:25;;;;;;;25.08;15.68;;;;;;;8.63;64.80;94605.53;5029838;28;19920;-73
2022/12/08 10:57:50;;;;;;;24.52;15.27;;;;;;;8.66;65.25;94602.72;5013532;28;20470;-72
2022/12/08 11:00:23;;;;;;;24.85;15.05;;;;;;;8.74;64.60;94597.75;5022304;28;20507;-72
2022/12/08 11:03:00;;;;;;;31.27;15.75;;;;;;;8.86;64.79;94598.53;5036926;28;20029;-71
2022/12/08 11:05:32;;;;;;;25.42;14.90;;;;;;;9.00;64.37;94590.53;5023431;28;20033;-72
2022/12/08 11:07:58;;;;;;;23.60;14.38;;;;;;;9.03;64.57;94587.69;5016008;28;20041;-72
2022/12/08 11:10:41;;;;;;;24.77;14.38;;;;;;;9.11;64.45;94581.84;5003656;28;20372;-72
2022/12/08 11:13:15;;;;;;;25.73;14.68;;;;;;;9.15;63.99;94583.28;5033567;28;20032;-72
2022/12/08 11:15:40;;;;;;;23.52;14.05;;;;;;;9.17;63.53;94583.97;5031441;28;20037;-72
2022/12/08 11:18:28;;;;;;;26.45;14.13;;;;;;;9.20;63.34;94581.13;5031364;28;20100;-72
2022/12/08 11:21:00;;;;;;;23.27;14.23;;;;;;;8.95;63.13;94588.28;5016089;28;20033;-72
2022/12/08 11:23:26;;;;;;;24.58;14.43;;;;;;;9.04;63.70;94578.13;5031413;28;20029;-72
2022/12/08 11:25:51;;;;;;;24.98;15.18;;;;;;;9.15;62.97;94567.72;5014231;28;20109;-72
2022/12/08 11:28:22;;;;;;;30.70;15.73;;;;;;;9.16;63.54;94565.03;5026580;28;20129;-72
2022/12/08 11:30:53;;;;;;;28.00;15.30;;;;;;;9.20;63.38;94563.00;5017874;28;20029;-72
2022/12/08 11:33:20;;;;;;;25.75;15.65;;;;;;;9.24;62.99;94561.78;5031392;28;20041;-72
2022/12/08 11:35:48;;;;;;;26.70;15.32;;;;;;;9.37;62.50;94551.25;5030970;28;20471;-73